KHIB/HIB METAR and TAF weather

Enter ICAO airport designator
Station Type Date Time Source
KHIB METAR 2021/04/18 00:53 UTC NOAA

KHIB 180053Z AUTO 32006KT 10SM CLR 07/M06 A2994 RMK AO2 SLP150 T00721056


Station Type Date Time Source
KHIB Decoded METAR 2021/04/18 00:53 UTC NOAA

CHISHOLM-HIBBING AIRPORT, MN, United States (KHIB) 47-23N 92-50W 412M
Apr 17, 2021 - 08:53 PM EDT / 2021.04.18 0053 UTC
Wind: from the NW (320 degrees) at 7 MPH (6 KT):0
Visibility: 10 mile(s):0
Sky conditions: clear
Temperature: 45.0 F (7.2 C)
Dew Point: 21.9 F (-5.6 C)
Relative Humidity: 39%
Pressure (altimeter): 29.94 in. Hg (1013 hPa)
ob: KHIB 180053Z AUTO 32006KT 10SM CLR 07/M06 A2994 RMK AO2 SLP150 T00721056
cycle: 1

Station Type Date Time Source
KHIB TAF 2021/04/17 19:30 UTC NOAA

TAF
AMD KHIB 171929Z 1719/1818 32009G15KT P6SM FEW060
FM180200 VRB02KT P6SM FEW050
FM181600 23007KT P6SM VCSH SCT050 BKN080

Example: see airport list